createdAt,value
2022-10-31T00:01:37.545Z,12.60
2022-10-31T00:04:06.294Z,12.50
2022-10-31T00:06:34.000Z,12.50
2022-10-31T00:09:04.655Z,12.40
2022-10-31T00:11:32.396Z,12.50
2022-10-31T00:14:00.992Z,12.50
2022-10-31T00:16:29.765Z,12.50
2022-10-31T00:19:02.311Z,12.40
2022-10-31T00:21:31.789Z,12.50
2022-10-31T00:24:00.483Z,12.40
2022-10-31T00:26:32.407Z,12.40
2022-10-31T00:29:01.226Z,12.30
2022-10-31T00:31:28.928Z,12.20
2022-10-31T00:33:56.797Z,12.20
2022-10-31T00:36:26.830Z,12.10
2022-10-31T00:38:54.399Z,12.00
2022-10-31T00:41:23.174Z,12.00
2022-10-31T00:43:50.784Z,12.00
2022-10-31T00:46:18.358Z,12.00
2022-10-31T00:48:46.110Z,12.00
2022-10-31T00:51:13.695Z,12.00
2022-10-31T00:53:42.674Z,12.00
2022-10-31T00:56:10.985Z,12.00
2022-10-31T00:58:38.618Z,12.00
2022-10-31T01:01:06.431Z,12.00
2022-10-31T01:03:36.126Z,12.00
2022-10-31T01:06:14.564Z,12.00
2022-10-31T01:08:42.441Z,12.00
2022-10-31T01:11:20.788Z,11.90
2022-10-31T01:13:52.350Z,11.90
2022-10-31T01:16:24.180Z,11.80
2022-10-31T01:18:52.765Z,11.80
2022-10-31T01:21:24.185Z,11.80
2022-10-31T01:23:54.843Z,11.80
2022-10-31T01:26:30.844Z,11.80
2022-10-31T01:29:02.066Z,11.70
2022-10-31T01:31:35.169Z,11.70
2022-10-31T01:34:04.377Z,11.60
2022-10-31T01:36:35.515Z,11.60
2022-10-31T01:39:11.590Z,11.50
2022-10-31T01:41:43.571Z,11.50
2022-10-31T01:44:17.297Z,11.50
2022-10-31T01:46:53.652Z,11.50
2022-10-31T01:49:47.821Z,11.50
2022-10-31T01:52:31.163Z,11.50
2022-10-31T01:55:26.503Z,11.60
2022-10-31T01:58:07.081Z,11.60
2022-10-31T02:00:34.821Z,11.60
2022-10-31T02:03:03.543Z,11.60
2022-10-31T02:05:32.069Z,11.60
2022-10-31T02:08:15.133Z,11.60
2022-10-31T02:10:44.332Z,11.60
2022-10-31T02:13:13.951Z,11.60
2022-10-31T02:15:54.200Z,11.60
2022-10-31T02:18:23.404Z,11.50
2022-10-31T02:21:23.181Z,11.60
2022-10-31T02:24:26.407Z,11.50
2022-10-31T02:27:33.344Z,11.50
2022-10-31T02:30:21.389Z,11.60
2022-10-31T02:33:16.832Z,11.60
2022-10-31T02:36:13.064Z,11.60
2022-10-31T02:39:03.218Z,11.60
2022-10-31T02:42:02.397Z,11.60
2022-10-31T02:45:01.536Z,11.70
2022-10-31T02:47:34.797Z,11.70
2022-10-31T02:50:12.297Z,11.70
2022-10-31T02:52:40.575Z,11.70
2022-10-31T02:55:34.614Z,11.70
2022-10-31T02:58:15.395Z,11.70
2022-10-31T03:01:14.893Z,11.60
2022-10-31T03:04:11.235Z,11.70
2022-10-31T03:07:33.805Z,11.70
2022-10-31T03:10:14.269Z,11.70
2022-10-31T03:15:56.468Z,11.70
2022-10-31T03:18:33.634Z,11.70
2022-10-31T03:21:14.462Z,11.70
2022-10-31T03:23:45.104Z,11.70
2022-10-31T03:26:22.412Z,11.70
2022-10-31T03:29:03.037Z,11.60
2022-10-31T03:31:44.730Z,11.60
2022-10-31T03:34:19.360Z,11.60
2022-10-31T03:36:51.254Z,11.60
2022-10-31T03:39:22.472Z,11.50
2022-10-31T03:42:07.516Z,11.40
2022-10-31T03:44:36.838Z,11.20
2022-10-31T03:47:05.752Z,11.10
2022-10-31T03:49:35.098Z,11.10
2022-10-31T03:52:20.444Z,11.10
2022-10-31T03:54:59.234Z,11.10
2022-10-31T03:57:46.006Z,11.10
2022-10-31T04:00:15.824Z,11.00
2022-10-31T04:03:10.747Z,10.90
2022-10-31T04:05:41.810Z,10.90
2022-10-31T04:08:16.032Z,10.90
2022-10-31T04:10:48.243Z,10.80
2022-10-31T04:13:21.861Z,10.70
2022-10-31T04:15:58.552Z,10.70
2022-10-31T04:18:27.684Z,10.70
2022-10-31T04:21:08.853Z,10.70
2022-10-31T04:23:37.438Z,10.70
2022-10-31T04:26:19.122Z,10.70
2022-10-31T04:28:47.770Z,10.70
2022-10-31T04:31:16.116Z,10.70
2022-10-31T04:33:45.725Z,10.60
2022-10-31T04:36:13.613Z,10.40
2022-10-31T04:38:41.248Z,10.40
2022-10-31T04:41:18.580Z,10.30
2022-10-31T04:44:00.155Z,10.30
2022-10-31T04:46:29.084Z,10.30
2022-10-31T04:48:59.110Z,10.30
2022-10-31T04:51:26.758Z,10.40
2022-10-31T04:53:54.618Z,10.40
2022-10-31T04:56:40.773Z,10.40
2022-10-31T04:59:15.632Z,10.40
2022-10-31T05:01:51.292Z,10.40
2022-10-31T05:04:24.484Z,10.40
2022-10-31T05:06:52.191Z,10.40
2022-10-31T05:09:20.210Z,10.30
2022-10-31T05:11:48.096Z,10.30
2022-10-31T05:14:38.186Z,10.30
2022-10-31T05:17:24.267Z,10.30
2022-10-31T05:20:16.338Z,10.10
2022-10-31T05:23:04.281Z,10.10
2022-10-31T05:25:32.390Z,10.20
2022-10-31T05:28:03.571Z,10.30
2022-10-31T05:30:34.009Z,10.30
2022-10-31T05:33:02.133Z,10.40
2022-10-31T05:35:48.953Z,10.50
2022-10-31T05:38:42.985Z,10.50
2022-10-31T05:41:21.502Z,10.60
2022-10-31T05:43:49.458Z,10.70
2022-10-31T05:46:20.536Z,10.70
2022-10-31T05:49:13.941Z,10.70
2022-10-31T05:51:59.850Z,10.80
2022-10-31T05:54:36.476Z,10.80
2022-10-31T05:57:04.288Z,10.80
2022-10-31T05:59:31.979Z,10.80
2022-10-31T06:01:59.801Z,10.90
2022-10-31T06:04:47.538Z,10.90
2022-10-31T06:07:15.297Z,10.90
2022-10-31T06:09:42.930Z,10.90
2022-10-31T06:12:11.688Z,10.90
2022-10-31T06:14:57.586Z,10.90
2022-10-31T06:17:25.140Z,10.90
2022-10-31T06:20:12.033Z,10.90
2022-10-31T06:22:51.191Z,11.00
2022-10-31T06:25:18.978Z,11.00
2022-10-31T06:27:50.267Z,11.00
2022-10-31T06:30:18.046Z,10.90
2022-10-31T06:32:47.204Z,10.90
2022-10-31T06:35:14.948Z,10.90
2022-10-31T06:37:46.722Z,10.90
2022-10-31T06:40:29.390Z,10.90
2022-10-31T06:43:19.394Z,10.90
2022-10-31T06:45:47.186Z,10.90
2022-10-31T06:48:17.687Z,10.90
2022-10-31T06:51:05.924Z,11.00
2022-10-31T06:53:34.125Z,11.00
2022-10-31T06:56:02.752Z,10.90
2022-10-31T06:58:34.741Z,10.90
2022-10-31T07:01:05.420Z,10.90
2022-10-31T07:03:34.247Z,10.90
2022-10-31T07:06:01.903Z,10.90
2022-10-31T07:08:29.546Z,11.00
2022-10-31T07:10:58.378Z,11.00
2022-10-31T07:13:27.008Z,11.00
2022-10-31T07:16:07.698Z,11.00
2022-10-31T07:18:37.126Z,11.00
2022-10-31T07:21:05.407Z,11.10
2022-10-31T07:23:33.257Z,11.10
2022-10-31T07:26:29.817Z,11.10
2022-10-31T07:28:58.243Z,11.10
2022-10-31T07:31:26.739Z,11.20
2022-10-31T07:33:56.915Z,11.20
2022-10-31T07:36:30.716Z,11.30
2022-10-31T07:39:03.370Z,11.30
2022-10-31T07:41:33.165Z,11.30
2022-10-31T07:44:00.799Z,11.30
2022-10-31T07:46:31.482Z,11.30
2022-10-31T07:49:17.588Z,11.40
2022-10-31T07:52:03.633Z,11.40
2022-10-31T07:55:09.927Z,11.50
2022-10-31T07:57:38.324Z,11.50
2022-10-31T08:00:10.766Z,11.60
2022-10-31T08:02:43.800Z,11.60
2022-10-31T08:05:30.969Z,11.70
2022-10-31T08:08:33.445Z,11.70
2022-10-31T08:11:04.427Z,11.80
2022-10-31T08:13:32.275Z,11.90
2022-10-31T08:16:04.738Z,12.00
2022-10-31T08:18:38.449Z,12.00
2022-10-31T08:21:08.144Z,12.10
2022-10-31T08:23:36.685Z,12.20
2022-10-31T08:26:07.005Z,12.30
2022-10-31T08:28:34.827Z,12.40
2022-10-31T08:31:03.664Z,12.50
2022-10-31T08:33:43.073Z,12.70
2022-10-31T08:36:29.684Z,12.60
2022-10-31T08:39:12.880Z,12.70
2022-10-31T08:41:40.861Z,12.80
2022-10-31T08:44:12.712Z,12.90
2022-10-31T08:46:40.341Z,13.00
2022-10-31T08:49:08.310Z,12.90
2022-10-31T08:51:36.334Z,12.90
2022-10-31T08:54:04.028Z,12.90
2022-10-31T08:56:34.607Z,12.80
2022-10-31T08:59:05.023Z,12.80
2022-10-31T09:01:51.163Z,12.80
2022-10-31T09:04:19.537Z,12.70
2022-10-31T09:07:07.896Z,12.70
2022-10-31T09:09:35.236Z,12.60
2022-10-31T09:12:03.241Z,12.60
2022-10-31T09:14:48.680Z,12.60
2022-10-31T09:17:30.729Z,12.60
2022-10-31T09:20:18.088Z,12.70
2022-10-31T09:22:45.952Z,12.70
2022-10-31T09:25:14.153Z,12.70
2022-10-31T09:27:45.484Z,12.70
2022-10-31T09:30:13.630Z,12.70
2022-10-31T09:32:41.461Z,12.70
2022-10-31T09:35:09.785Z,12.70
2022-10-31T09:37:37.403Z,12.80
2022-10-31T09:40:05.849Z,12.80
2022-10-31T09:43:07.865Z,12.90
2022-10-31T09:45:39.849Z,12.90
2022-10-31T09:49:16.583Z,13.00
2022-10-31T09:52:05.038Z,13.10
2022-10-31T09:54:46.128Z,13.20
2022-10-31T09:57:17.207Z,13.30
2022-10-31T09:59:49.424Z,13.40
2022-10-31T10:02:49.580Z,13.40
2022-10-31T10:05:54.772Z,13.40
2022-10-31T10:08:36.487Z,13.50
2022-10-31T10:11:56.269Z,13.60
2022-10-31T10:15:00.853Z,13.70
2022-10-31T10:18:01.716Z,13.80
2022-10-31T10:21:12.789Z,14.00
2022-10-31T10:23:49.081Z,14.00
2022-10-31T10:26:23.106Z,14.10
2022-10-31T10:29:17.178Z,14.10
2022-10-31T10:31:47.002Z,14.10
2022-10-31T10:34:23.934Z,14.10
2022-10-31T10:37:05.574Z,14.10
2022-10-31T10:39:41.370Z,14.20
2022-10-31T10:42:31.957Z,14.20
2022-10-31T10:45:19.293Z,14.20
2022-10-31T10:48:07.003Z,14.20
2022-10-31T10:50:43.024Z,14.30
2022-10-31T10:53:32.985Z,14.30
2022-10-31T10:56:19.348Z,14.30
2022-10-31T10:58:47.085Z,14.30
2022-10-31T11:03:48.559Z,14.40
2022-10-31T11:06:34.447Z,14.50
2022-10-31T11:09:11.672Z,14.60
2022-10-31T11:11:40.223Z,14.70
2022-10-31T11:14:15.684Z,14.80
2022-10-31T11:16:51.289Z,14.80
2022-10-31T11:19:29.767Z,14.90
2022-10-31T11:22:09.282Z,15.00
2022-10-31T11:24:43.098Z,15.00
2022-10-31T11:27:22.983Z,15.00
2022-10-31T11:29:51.341Z,15.10
2022-10-31T11:32:27.941Z,15.10
2022-10-31T11:35:01.546Z,15.20
2022-10-31T11:37:36.274Z,15.20
2022-10-31T11:40:07.779Z,15.20
2022-10-31T11:42:43.685Z,15.30
2022-10-31T11:45:29.896Z,15.40
2022-10-31T11:47:59.847Z,15.40
2022-10-31T11:50:39.593Z,15.50
2022-10-31T11:53:27.349Z,15.60
2022-10-31T11:56:15.520Z,15.60
2022-10-31T11:58:43.967Z,15.70
2022-10-31T12:01:49.571Z,15.70
2022-10-31T12:04:20.269Z,15.70
2022-10-31T12:06:48.699Z,15.80
2022-10-31T12:09:22.291Z,15.80
2022-10-31T12:12:21.964Z,15.80
2022-10-31T12:15:26.603Z,15.80
2022-10-31T12:18:21.573Z,15.80
2022-10-31T12:21:02.625Z,15.80
2022-10-31T12:24:17.204Z,15.80
2022-10-31T12:27:11.179Z,15.80
2022-10-31T12:30:08.869Z,15.80
2022-10-31T12:33:00.371Z,15.80
2022-10-31T12:35:54.293Z,15.80
2022-10-31T12:39:02.405Z,15.80
2022-10-31T12:41:55.224Z,15.80
2022-10-31T12:44:41.281Z,15.90
2022-10-31T12:47:24.013Z,15.90
2022-10-31T12:50:14.151Z,15.80
2022-10-31T12:53:16.335Z,15.90
2022-10-31T12:56:31.504Z,15.90
2022-10-31T12:59:31.794Z,15.90
2022-10-31T13:02:17.120Z,15.80
2022-10-31T13:05:15.510Z,15.90
2022-10-31T13:07:52.709Z,15.80
2022-10-31T13:10:53.173Z,15.80
2022-10-31T13:13:36.763Z,15.80
2022-10-31T13:16:18.488Z,15.80
2022-10-31T13:19:29.619Z,15.80
2022-10-31T13:22:17.604Z,15.80
2022-10-31T13:25:05.183Z,15.80
2022-10-31T13:27:55.349Z,15.80
2022-10-31T13:30:27.026Z,15.90
2022-10-31T13:33:10.036Z,15.80
2022-10-31T13:36:00.054Z,15.80
2022-10-31T13:38:51.101Z,15.90
2022-10-31T13:41:52.060Z,15.90
2022-10-31T13:44:35.807Z,15.90
2022-10-31T13:47:21.842Z,15.90
2022-10-31T13:49:49.393Z,16.00
2022-10-31T13:52:26.022Z,16.10
2022-10-31T13:54:57.834Z,16.10
2022-10-31T13:57:34.886Z,16.30
2022-10-31T14:00:26.215Z,16.30
2022-10-31T14:02:57.804Z,16.30
2022-10-31T14:05:32.928Z,16.30
2022-10-31T14:08:05.845Z,16.30
2022-10-31T14:10:39.790Z,16.30
2022-10-31T14:13:27.892Z,16.20
2022-10-31T14:16:16.719Z,16.10
2022-10-31T14:18:50.368Z,16.00
2022-10-31T14:21:24.176Z,16.00
2022-10-31T14:23:55.683Z,15.90
2022-10-31T14:26:32.075Z,15.90
2022-10-31T14:29:33.410Z,15.90
2022-10-31T14:32:13.802Z,15.90
2022-10-31T14:34:44.120Z,16.00
2022-10-31T14:37:29.757Z,16.00
2022-10-31T14:40:03.036Z,16.00
2022-10-31T14:42:39.679Z,16.00
2022-10-31T14:45:30.669Z,15.90
2022-10-31T14:48:16.715Z,15.90
2022-10-31T14:50:54.256Z,15.90
2022-10-31T14:53:23.420Z,15.90
2022-10-31T14:55:54.825Z,15.90
2022-10-31T14:58:46.777Z,15.90
2022-10-31T15:01:30.987Z,15.90
2022-10-31T15:04:25.020Z,15.90
2022-10-31T15:07:13.042Z,15.90
2022-10-31T15:09:44.613Z,15.90
2022-10-31T15:12:39.433Z,15.90
2022-10-31T15:15:26.836Z,15.90
2022-10-31T15:18:02.548Z,15.90
2022-10-31T15:20:38.149Z,15.80
2022-10-31T15:23:06.780Z,15.80
2022-10-31T15:25:36.069Z,15.80
2022-10-31T15:28:23.722Z,15.80
2022-10-31T15:31:02.415Z,15.70
2022-10-31T15:33:38.280Z,15.70
2022-10-31T15:36:28.510Z,15.70
2022-10-31T15:38:58.842Z,15.80
2022-10-31T15:41:54.781Z,15.80
2022-10-31T15:44:29.193Z,15.80
2022-10-31T15:47:07.586Z,15.80
2022-10-31T15:49:48.357Z,15.80
2022-10-31T15:52:43.747Z,15.70
2022-10-31T15:55:23.000Z,15.70
2022-10-31T15:57:56.521Z,15.60
2022-10-31T16:00:29.039Z,15.60
2022-10-31T16:03:27.120Z,15.50
2022-10-31T16:06:06.215Z,15.50
2022-10-31T16:08:36.686Z,15.40
2022-10-31T16:11:07.247Z,15.40
2022-10-31T16:13:38.949Z,15.30
2022-10-31T16:16:35.560Z,15.30
2022-10-31T16:19:06.566Z,15.30
2022-10-31T16:21:39.797Z,15.30
2022-10-31T16:24:25.939Z,15.30
2022-10-31T16:26:55.553Z,15.30
2022-10-31T16:29:40.732Z,15.30
2022-10-31T16:32:27.560Z,15.20
2022-10-31T16:35:01.610Z,15.20
2022-10-31T16:37:29.283Z,15.20
2022-10-31T16:39:56.923Z,15.20
2022-10-31T16:42:25.612Z,15.20
2022-10-31T16:44:53.264Z,15.10
2022-10-31T16:47:23.347Z,15.10
2022-10-31T16:49:53.600Z,15.10
2022-10-31T16:52:22.025Z,15.10
2022-10-31T16:54:49.822Z,15.10
2022-10-31T16:57:23.178Z,15.10
2022-10-31T16:59:56.433Z,15.10
2022-10-31T17:02:24.678Z,15.10
2022-10-31T17:04:55.781Z,15.10
2022-10-31T17:07:24.671Z,15.10
2022-10-31T17:09:52.286Z,15.10
2022-10-31T17:12:23.577Z,15.10
2022-10-31T17:14:52.999Z,15.00
2022-10-31T17:17:21.107Z,15.10
2022-10-31T17:19:48.915Z,15.10
2022-10-31T17:22:16.710Z,15.10
2022-10-31T17:24:44.322Z,15.10
2022-10-31T17:27:29.280Z,15.10
2022-10-31T17:29:57.026Z,15.10
2022-10-31T17:32:24.613Z,15.10
2022-10-31T17:34:52.198Z,15.10
2022-10-31T17:37:19.777Z,15.10
2022-10-31T17:39:47.618Z,15.00
2022-10-31T17:42:15.252Z,15.00
2022-10-31T17:44:42.807Z,15.00
2022-10-31T17:47:10.899Z,14.90
2022-10-31T17:49:38.582Z,15.00
2022-10-31T17:52:06.550Z,14.90
2022-10-31T17:54:34.137Z,14.90
2022-10-31T17:57:01.770Z,14.90
2022-10-31T17:59:30.213Z,14.90
2022-10-31T18:01:59.701Z,14.90
2022-10-31T18:04:28.570Z,14.90
2022-10-31T18:06:56.143Z,15.00
2022-10-31T18:09:23.732Z,14.90
2022-10-31T18:11:51.316Z,14.90
2022-10-31T18:14:18.903Z,14.90
2022-10-31T18:16:46.475Z,14.90
2022-10-31T18:19:18.784Z,14.90
2022-10-31T18:21:46.867Z,14.90
2022-10-31T18:24:14.513Z,14.90
2022-10-31T18:26:42.205Z,14.80
2022-10-31T18:29:11.877Z,14.80
2022-10-31T18:31:39.697Z,14.80
2022-10-31T18:34:07.368Z,14.80
2022-10-31T18:36:35.341Z,14.80
2022-10-31T18:39:03.207Z,14.80
2022-10-31T18:41:30.858Z,14.80
2022-10-31T18:44:00.257Z,14.80
2022-10-31T18:46:29.002Z,14.80
2022-10-31T18:48:56.820Z,14.80
2022-10-31T18:51:24.607Z,14.80
2022-10-31T18:53:56.273Z,14.80
2022-10-31T18:56:24.917Z,14.80
2022-10-31T18:58:52.712Z,14.80
2022-10-31T19:01:22.366Z,14.80
2022-10-31T19:03:55.681Z,14.80
2022-10-31T19:06:28.240Z,14.80
2022-10-31T19:09:06.550Z,14.80
2022-10-31T19:11:35.709Z,14.80
2022-10-31T19:14:04.389Z,14.90
2022-10-31T19:16:32.115Z,14.90
2022-10-31T19:19:00.184Z,14.90
2022-10-31T19:21:28.540Z,14.90
2022-10-31T19:23:57.307Z,14.90
2022-10-31T19:26:26.457Z,14.90
2022-10-31T19:28:55.642Z,14.90
2022-10-31T19:31:23.793Z,14.90
2022-10-31T19:33:51.805Z,14.90
2022-10-31T19:36:20.892Z,14.90
2022-10-31T19:38:52.032Z,14.90
2022-10-31T19:41:28.170Z,14.90
2022-10-31T19:43:59.065Z,14.90
2022-10-31T19:46:52.444Z,14.90
2022-10-31T19:49:14.678Z,14.90
2022-10-31T19:51:42.290Z,15.00
2022-10-31T19:54:11.454Z,15.00
2022-10-31T19:56:39.145Z,15.00
2022-10-31T19:59:06.778Z,15.00
2022-10-31T20:01:34.574Z,15.00
2022-10-31T20:04:02.278Z,15.00
2022-10-31T20:06:37.243Z,15.00
2022-10-31T20:09:13.211Z,15.10
2022-10-31T20:11:43.195Z,15.10
2022-10-31T20:14:16.952Z,15.10
2022-10-31T20:16:45.561Z,15.20
2022-10-31T20:19:13.101Z,15.20
2022-10-31T20:21:41.547Z,15.20
2022-10-31T20:24:10.862Z,15.40
2022-10-31T20:26:41.274Z,15.40
2022-10-31T20:29:15.795Z,15.30
2022-10-31T20:31:46.233Z,15.30
2022-10-31T20:34:14.700Z,15.40
2022-10-31T20:36:42.288Z,15.30
2022-10-31T20:39:10.278Z,15.40
2022-10-31T20:41:39.478Z,15.40
2022-10-31T20:44:07.539Z,15.40
2022-10-31T20:46:35.112Z,15.50
2022-10-31T20:49:02.657Z,15.50
2022-10-31T20:51:31.843Z,15.50
2022-10-31T20:54:00.756Z,15.50
2022-10-31T20:56:29.736Z,15.50
2022-10-31T20:58:58.356Z,15.50
2022-10-31T21:01:29.906Z,15.60
2022-10-31T21:03:58.719Z,15.60
2022-10-31T21:06:27.060Z,15.60
2022-10-31T21:08:55.211Z,15.60
2022-10-31T21:11:26.114Z,15.60
2022-10-31T21:13:54.334Z,15.70
2022-10-31T21:16:27.123Z,15.70
2022-10-31T21:18:55.637Z,15.70
2022-10-31T21:21:32.155Z,15.70
2022-10-31T21:24:21.653Z,15.80
2022-10-31T21:26:54.805Z,15.70
2022-10-31T21:29:24.145Z,15.80
2022-10-31T21:31:52.417Z,15.80
2022-10-31T21:34:20.148Z,15.80
2022-10-31T21:36:48.122Z,15.70
2022-10-31T21:39:15.716Z,15.70
2022-10-31T21:41:44.219Z,15.70
2022-10-31T21:44:11.863Z,15.80
2022-10-31T21:46:39.991Z,15.70
2022-10-31T21:49:07.636Z,15.70
2022-10-31T21:51:36.812Z,15.80
2022-10-31T21:54:23.661Z,15.80
2022-10-31T21:56:53.028Z,15.80
2022-10-31T21:59:22.057Z,15.80
2022-10-31T22:01:50.984Z,15.90
2022-10-31T22:04:19.678Z,15.90
2022-10-31T22:06:47.435Z,15.90
2022-10-31T22:09:16.309Z,15.90
2022-10-31T22:11:44.235Z,15.90
2022-10-31T22:14:14.128Z,15.90
2022-10-31T22:16:42.287Z,15.90
2022-10-31T22:19:13.389Z,15.90
2022-10-31T22:21:47.178Z,15.90
2022-10-31T22:24:16.955Z,15.90
2022-10-31T22:26:44.714Z,15.90
2022-10-31T22:29:18.051Z,15.90
2022-10-31T22:31:50.661Z,15.90
2022-10-31T22:34:21.423Z,15.90
2022-10-31T22:36:49.180Z,15.90
2022-10-31T22:39:16.914Z,15.90
2022-10-31T22:41:44.515Z,15.90
2022-10-31T22:44:12.117Z,15.90
2022-10-31T22:46:40.372Z,15.90
2022-10-31T22:49:17.355Z,15.90
2022-10-31T22:51:45.352Z,15.90
2022-10-31T22:54:18.106Z,15.90
2022-10-31T22:56:46.463Z,15.90
2022-10-31T22:59:16.649Z,15.90
2022-10-31T23:01:45.816Z,15.90
2022-10-31T23:04:15.078Z,16.00
2022-10-31T23:06:42.889Z,15.90
2022-10-31T23:09:15.539Z,16.00
2022-10-31T23:11:43.726Z,16.00
2022-10-31T23:14:20.433Z,16.00
2022-10-31T23:16:56.830Z,16.00
2022-10-31T23:19:28.467Z,16.00
2022-10-31T23:22:03.040Z,15.90
2022-10-31T23:24:46.152Z,15.90
2022-10-31T23:27:23.559Z,15.90
2022-10-31T23:29:56.973Z,16.00
2022-10-31T23:32:36.831Z,16.00
2022-10-31T23:35:08.468Z,16.00
2022-10-31T23:37:38.502Z,16.00
2022-10-31T23:40:08.829Z,16.10
2022-10-31T23:42:36.486Z,16.10
2022-10-31T23:45:05.240Z,16.10
2022-10-31T23:47:32.865Z,16.10
2022-10-31T23:50:00.405Z,16.20
2022-10-31T23:52:28.453Z,16.20
2022-10-31T23:54:56.381Z,16.20
2022-10-31T23:57:23.945Z,16.20
2022-10-31T23:59:51.512Z,16.20
